Time;durP1;ratioP1;P1;durP2;ratioP2;P2;SDS_P1;SDS_P2;PMS_P1;PMS_P2;Temp;Humidity;BMP_temperature;BMP_pressure;BME280_temperature;BME280_humidity;BME280_pressure;Samples;Min_cycle;Max_cycle;Signal;HPM_P1;HPM_P2
2020/12/29 00:01:38;;;;;;;6.93;3.90;;;-1.80;99.90;;;;;;5046788;28;20130;-77
2020/12/29 00:04:05;;;;;;;6.90;3.50;;;-1.80;99.90;;;;;;5046801;28;20063;-77
2020/12/29 00:06:31;;;;;;;7.33;3.60;;;-2.00;99.90;;;;;;5047873;28;20075;-77
2020/12/29 00:08:57;;;;;;;6.70;3.77;;;-1.90;99.90;;;;;;5035061;28;20501;-77
2020/12/29 00:11:23;;;;;;;5.43;2.90;;;-1.80;99.90;;;;;;5047496;28;20028;-77
2020/12/29 00:13:49;;;;;;;5.93;2.90;;;-2.00;99.90;;;;;;5047544;28;20053;-76
2020/12/29 00:16:15;;;;;;;7.20;2.83;;;-1.90;99.90;;;;;;5047326;28;20084;-80
2020/12/29 00:18:40;;;;;;;6.23;2.77;;;-1.80;99.90;;;;;;5047495;28;20035;-76
2020/12/29 00:21:06;;;;;;;5.37;3.13;;;-1.70;99.90;;;;;;5047380;28;20037;-76
2020/12/29 00:23:32;;;;;;;5.97;3.47;;;-1.60;99.90;;;;;;5047323;28;20041;-76
2020/12/29 00:25:57;;;;;;;6.93;3.90;;;-1.60;99.90;;;;;;5047904;28;20566;-81
2020/12/29 00:28:23;;;;;;;6.83;4.00;;;-1.70;99.90;;;;;;5047455;28;20021;-77
2020/12/29 00:30:49;;;;;;;8.30;3.83;;;-1.80;99.90;;;;;;5047357;28;20059;-76
2020/12/29 00:33:14;;;;;;;7.40;4.30;;;-1.80;99.90;;;;;;5061211;28;20518;-78
2020/12/29 00:35:40;;;;;;;9.73;4.60;;;-1.90;99.90;;;;;;5059858;28;20041;-77
2020/12/29 00:38:06;;;;;;;7.73;4.23;;;-1.80;99.90;;;;;;5047343;28;20098;-81
2020/12/29 00:40:31;;;;;;;6.70;4.13;;;-1.90;99.90;;;;;;5047771;28;20487;-76
2020/12/29 00:42:57;;;;;;;7.23;3.63;;;-1.90;99.90;;;;;;5047078;28;20041;-76
2020/12/29 00:45:23;;;;;;;6.07;3.33;;;-2.00;99.90;;;;;;5069033;28;20028;-80
2020/12/29 00:47:48;;;;;;;5.97;3.73;;;-2.20;99.90;;;;;;5067199;28;20055;-78
2020/12/29 00:50:14;;;;;;;5.63;3.33;;;-2.20;99.90;;;;;;5052724;28;20025;-76
2020/12/29 00:52:40;;;;;;;4.83;2.93;;;-2.10;99.90;;;;;;5051276;28;20612;-77
2020/12/29 00:55:05;;;;;;;4.87;2.63;;;-2.20;99.90;;;;;;5050723;28;20114;-77
2020/12/29 00:57:31;;;;;;;5.13;2.60;;;-2.10;99.90;;;;;;5050908;28;20032;-82
2020/12/29 00:59:57;;;;;;;5.90;3.83;;;-1.90;99.90;;;;;;5064722;28;20479;-76
2020/12/29 01:02:22;;;;;;;6.87;3.50;;;-1.80;99.90;;;;;;5070711;28;20039;-77
2020/12/29 01:04:48;;;;;;;5.33;2.77;;;-1.80;99.90;;;;;;5058154;28;20199;-76
2020/12/29 01:07:14;;;;;;;6.40;3.60;;;-2.00;99.90;;;;;;5058230;28;20032;-76
2020/12/29 01:09:40;;;;;;;5.70;2.87;;;-2.00;99.90;;;;;;5050609;28;20029;-76
2020/12/29 01:12:06;;;;;;;5.17;2.33;;;-2.00;99.90;;;;;;5050583;28;20025;-77
2020/12/29 01:14:32;;;;;;;5.00;2.33;;;-2.20;99.90;;;;;;5050493;28;20032;-77
2020/12/29 01:16:57;;;;;;;4.73;2.33;;;-2.20;99.90;;;;;;5050916;28;20099;-77
2020/12/29 01:19:23;;;;;;;5.83;3.13;;;-2.10;99.90;;;;;;5050261;28;20025;-82
2020/12/29 01:21:52;;;;;;;6.57;2.77;;;-2.00;99.90;;;;;;5050197;28;20044;-76
2020/12/29 01:24:18;;;;;;;6.23;2.57;;;-2.00;99.90;;;;;;5050427;28;20032;-77
2020/12/29 01:26:44;;;;;;;5.80;2.70;;;-1.90;99.90;;;;;;5050583;28;20029;-77
2020/12/29 01:29:09;;;;;;;5.13;2.20;;;-2.20;99.90;;;;;;5059308;28;21693;-77
2020/12/29 01:31:35;;;;;;;6.03;2.93;;;-2.30;99.90;;;;;;5070306;28;20070;-77
2020/12/29 01:34:02;;;;;;;5.77;2.53;;;-2.30;99.90;;;;;;5054910;28;20033;-76
2020/12/29 01:36:28;;;;;;;7.80;3.60;;;-2.20;99.90;;;;;;5050624;28;20367;-77
2020/12/29 01:38:55;;;;;;;5.97;2.63;;;-2.10;99.90;;;;;;5051232;28;20040;-77
2020/12/29 01:41:22;;;;;;;5.60;3.10;;;-1.90;99.90;;;;;;5059722;28;20029;-77
2020/12/29 01:43:49;;;;;;;6.90;2.63;;;-2.00;99.90;;;;;;5049724;28;20109;-80
2020/12/29 01:46:15;;;;;;;5.93;3.40;;;-2.00;99.90;;;;;;5032203;28;20029;-77
2020/12/29 01:48:41;;;;;;;5.77;2.87;;;-1.90;99.90;;;;;;5049796;28;20025;-79
2020/12/29 01:51:07;;;;;;;5.17;2.60;;;-2.00;99.90;;;;;;5054490;28;20031;-77
2020/12/29 01:53:33;;;;;;;7.60;3.60;;;-1.90;99.90;;;;;;5049756;28;20108;-77
2020/12/29 01:56:01;;;;;;;7.70;4.27;;;-2.10;99.90;;;;;;5048590;28;20573;-77
2020/12/29 01:58:27;;;;;;;6.70;3.67;;;-2.10;99.90;;;;;;5049800;28;20068;-77
2020/12/29 02:00:53;;;;;;;9.20;4.90;;;-2.00;99.90;;;;;;5049424;28;20560;-77
2020/12/29 02:03:19;;;;;;;6.07;3.50;;;-2.10;99.90;;;;;;5050659;28;20021;-76
2020/12/29 02:05:48;;;;;;;5.73;2.70;;;-2.20;99.90;;;;;;5049351;28;20094;-76
2020/12/29 02:08:19;;;;;;;6.03;3.17;;;-2.30;99.90;;;;;;5050279;28;20025;-81
2020/12/29 02:10:45;;;;;;;5.90;2.70;;;-2.10;99.90;;;;;;5049416;28;20036;-77
2020/12/29 02:13:11;;;;;;;5.07;2.70;;;-2.10;99.90;;;;;;5049535;28;20028;-76
2020/12/29 02:15:36;;;;;;;5.60;3.00;;;-2.20;99.90;;;;;;5049177;28;20029;-77
2020/12/29 02:18:03;;;;;;;6.53;3.10;;;-2.10;99.90;;;;;;5049440;28;20032;-79
2020/12/29 02:20:29;;;;;;;7.43;3.83;;;-2.20;99.90;;;;;;5049143;28;20053;-77
2020/12/29 02:22:55;;;;;;;7.03;4.33;;;-2.10;99.90;;;;;;5049020;28;20055;-77
2020/12/29 02:25:20;;;;;;;8.77;4.57;;;-2.00;99.90;;;;;;5058735;28;20025;-77
2020/12/29 02:27:48;;;;;;;8.03;4.90;;;-2.00;99.90;;;;;;5069385;28;20044;-79
2020/12/29 02:30:16;;;;;;;10.07;4.10;;;-2.00;99.90;;;;;;5063306;28;20499;-77
2020/12/29 02:32:42;;;;;;;6.87;3.60;;;-2.00;99.90;;;;;;5069352;28;20032;-78
2020/12/29 02:35:09;;;;;;;6.90;3.70;;;-2.00;99.90;;;;;;5050752;28;20025;-77
2020/12/29 02:37:35;;;;;;;6.70;3.60;;;-2.00;99.90;;;;;;5049246;28;20029;-77
2020/12/29 02:40:00;;;;;;;5.87;3.17;;;-2.20;99.90;;;;;;5048362;28;20052;-78
2020/12/29 02:42:26;;;;;;;8.47;4.00;;;-2.20;99.90;;;;;;5054464;28;20064;-77
2020/12/29 02:44:52;;;;;;;7.33;4.30;;;-2.20;99.90;;;;;;5055971;28;20032;-77
2020/12/29 02:47:18;;;;;;;8.23;4.50;;;-2.10;99.90;;;;;;5049346;28;20025;-77
2020/12/29 02:49:43;;;;;;;6.33;3.57;;;-2.00;99.90;;;;;;5048726;28;20411;-77
2020/12/29 02:52:09;;;;;;;13.20;6.40;;;-2.10;99.90;;;;;;5052455;28;20031;-76
2020/12/29 02:54:35;;;;;;;9.40;5.87;;;-1.90;99.90;;;;;;5053735;28;20139;-76
2020/12/29 02:57:00;;;;;;;11.73;6.87;;;-1.80;99.90;;;;;;5041717;28;20086;-77
2020/12/29 02:59:26;;;;;;;9.97;5.33;;;-1.80;99.90;;;;;;5050404;28;20017;-80
2020/12/29 03:01:52;;;;;;;10.47;6.70;;;-1.80;99.90;;;;;;5054106;28;20068;-77
2020/12/29 03:04:19;;;;;;;9.17;5.33;;;-1.90;99.90;;;;;;5068638;28;20025;-77
2020/12/29 03:06:45;;;;;;;7.90;4.03;;;-1.90;99.90;;;;;;5052325;28;20127;-76
2020/12/29 03:09:11;;;;;;;7.07;4.20;;;-1.80;99.90;;;;;;5048751;28;20055;-82
2020/12/29 03:11:38;;;;;;;10.63;5.13;;;-1.90;99.90;;;;;;5048543;28;20067;-77
2020/12/29 03:14:06;;;;;;;13.63;7.43;;;-2.00;99.90;;;;;;5048173;28;20036;-78
2020/12/29 03:16:32;;;;;;;11.53;6.77;;;-2.10;99.90;;;;;;5053973;28;20107;-78
2020/12/29 03:19:01;;;;;;;8.87;6.10;;;-2.10;99.90;;;;;;5068767;28;20029;-77
2020/12/29 03:21:27;;;;;;;8.67;4.77;;;-2.00;99.90;;;;;;5066472;28;20028;-77
2020/12/29 03:23:52;;;;;;;9.70;5.27;;;-2.10;99.90;;;;;;5067947;28;20049;-77
2020/12/29 03:26:19;;;;;;;9.33;5.13;;;-2.10;99.90;;;;;;5066660;28;20078;-77
2020/12/29 03:28:45;;;;;;;10.20;5.53;;;-2.10;99.90;;;;;;5067400;28;20033;-76
2020/12/29 03:31:11;;;;;;;9.10;5.80;;;-2.10;99.90;;;;;;5041864;28;20035;-78
2020/12/29 03:33:37;;;;;;;11.90;6.03;;;-2.10;99.90;;;;;;5048129;28;20031;-77
2020/12/29 03:36:03;;;;;;;10.73;6.93;;;-2.00;99.90;;;;;;5048121;28;20036;-77
2020/12/29 03:38:29;;;;;;;13.17;7.53;;;-1.90;99.90;;;;;;5048230;28;20059;-77
2020/12/29 03:40:54;;;;;;;9.80;4.90;;;-1.90;99.90;;;;;;5047779;28;20479;-77
2020/12/29 03:43:21;;;;;;;10.53;5.17;;;-2.00;99.90;;;;;;5058968;28;20040;-78
2020/12/29 03:45:48;;;;;;;9.47;5.13;;;-2.10;99.90;;;;;;5064182;28;20029;-77
2020/12/29 03:48:16;;;;;;;10.93;5.60;;;-2.20;99.90;;;;;;5048027;28;20078;-76
2020/12/29 03:50:42;;;;;;;11.67;5.93;;;-2.10;99.90;;;;;;5064257;28;20040;-77
2020/12/29 03:53:09;;;;;;;11.27;6.13;;;-2.10;99.90;;;;;;5054927;28;20029;-79
2020/12/29 03:55:35;;;;;;;10.47;5.70;;;-2.10;99.90;;;;;;5064938;28;20428;-77
2020/12/29 03:58:02;;;;;;;11.97;4.97;;;-2.00;99.90;;;;;;5047942;28;20043;-78
2020/12/29 04:00:28;;;;;;;11.53;5.53;;;-2.20;99.90;;;;;;5051265;28;20024;-78
2020/12/29 04:02:53;;;;;;;12.27;6.87;;;-2.20;99.90;;;;;;5046482;28;20028;-83
2020/12/29 04:05:19;;;;;;;11.93;6.73;;;-2.20;99.90;;;;;;5045711;28;20487;-78
2020/12/29 04:07:48;;;;;;;10.97;6.60;;;-2.10;99.90;;;;;;5066207;28;20115;-77
2020/12/29 04:10:14;;;;;;;10.13;5.47;;;-2.00;99.90;;;;;;5064662;28;20532;-79
2020/12/29 04:12:40;;;;;;;9.43;5.60;;;-2.20;99.90;;;;;;5045800;28;20033;-78
2020/12/29 04:15:06;;;;;;;8.83;5.87;;;-2.20;99.90;;;;;;5045758;28;20503;-78
2020/12/29 04:17:36;;;;;;;9.13;5.43;;;-2.20;99.90;;;;;;5055531;28;20078;-77
2020/12/29 04:20:03;;;;;;;11.93;6.73;;;-2.30;99.90;;;;;;5068674;28;20036;-79
2020/12/29 04:22:30;;;;;;;10.00;6.13;;;-2.30;99.90;;;;;;5065663;28;20304;-81
2020/12/29 04:24:56;;;;;;;9.70;6.00;;;-2.40;99.90;;;;;;5050046;28;20564;-82
2020/12/29 04:27:22;;;;;;;12.07;6.43;;;-2.40;99.90;;;;;;5064196;28;20119;-77
2020/12/29 04:29:49;;;;;;;9.67;6.00;;;-2.30;99.90;;;;;;5069581;28;20159;-78
2020/12/29 04:32:15;;;;;;;10.93;6.47;;;-2.40;99.90;;;;;;5065689;28;20028;-77
2020/12/29 04:34:41;;;;;;;9.63;5.77;;;-2.10;99.90;;;;;;5050690;28;20498;-78
2020/12/29 04:37:07;;;;;;;11.53;6.97;;;-2.10;99.90;;;;;;5056616;28;20036;-77
2020/12/29 04:39:33;;;;;;;10.73;6.20;;;-1.90;99.90;;;;;;5049545;28;20032;-77
2020/12/29 04:42:19;;;;;;;11.23;7.00;;;-2.00;99.90;;;;;;5050659;28;20051;-80
2020/12/29 04:44:45;;;;;;;12.50;6.67;;;-2.10;99.90;;;;;;5069283;28;20024;-76
2020/12/29 04:47:12;;;;;;;11.73;6.80;;;-2.00;99.90;;;;;;5053050;28;20959;-78
2020/12/29 04:49:39;;;;;;;11.23;5.60;;;-1.90;99.90;;;;;;5049314;28;20029;-77
2020/12/29 04:52:07;;;;;;;9.53;6.50;;;-2.00;99.90;;;;;;5048951;28;20029;-78
2020/12/29 04:54:35;;;;;;;9.57;5.07;;;-2.10;99.90;;;;;;5049178;28;20021;-77
2020/12/29 04:57:02;;;;;;;10.87;5.67;;;-2.10;99.90;;;;;;5050135;28;20063;-77
2020/12/29 04:59:32;;;;;;;10.33;5.47;;;-2.10;99.90;;;;;;5049484;28;20096;-78
2020/12/29 05:01:59;;;;;;;11.23;5.63;;;-2.20;99.90;;;;;;5048911;28;20404;-77
2020/12/29 05:04:24;;;;;;;10.80;5.63;;;-2.20;99.90;;;;;;5048901;28;20036;-77
2020/12/29 05:06:53;;;;;;;9.97;5.37;;;-2.20;99.90;;;;;;5048647;28;20036;-77
2020/12/29 05:09:23;;;;;;;11.10;5.63;;;-2.20;99.90;;;;;;5048865;28;20437;-77
2020/12/29 05:11:50;;;;;;;10.60;5.80;;;-2.30;99.90;;;;;;5048413;28;20029;-77
2020/12/29 05:14:15;;;;;;;11.40;5.77;;;-2.40;99.90;;;;;;5048995;28;20371;-78
2020/12/29 05:16:42;;;;;;;9.43;5.57;;;-2.20;99.90;;;;;;5048317;28;20033;-78
2020/12/29 05:19:09;;;;;;;11.23;6.20;;;-2.20;99.90;;;;;;5048519;28;20523;-78
2020/12/29 05:21:37;;;;;;;11.03;5.77;;;-2.10;99.90;;;;;;5054205;28;20067;-82
2020/12/29 05:24:17;;;;;;;9.63;5.70;;;-2.20;99.90;;;;;;5048127;28;20025;-77
2020/12/29 05:26:44;;;;;;;9.13;5.80;;;-2.10;99.90;;;;;;5062144;28;20112;-77
2020/12/29 05:29:12;;;;;;;10.33;6.20;;;-2.10;99.90;;;;;;5068467;28;20663;-78
2020/12/29 05:31:39;;;;;;;10.00;5.13;;;-2.10;99.90;;;;;;5055662;28;20040;-78
2020/12/29 05:34:05;;;;;;;9.67;5.47;;;-1.90;99.90;;;;;;5047706;28;20060;-78
2020/12/29 05:36:36;;;;;;;9.70;5.10;;;-1.90;99.90;;;;;;5047994;28;20029;-77
2020/12/29 05:39:10;;;;;;;9.73;6.50;;;-1.90;99.90;;;;;;5047837;28;20032;-77
2020/12/29 05:41:46;;;;;;;15.52;7.50;;;-1.80;99.90;;;;;;5047425;28;20036;-78
2020/12/29 05:44:29;;;;;;;13.23;7.83;;;-2.00;99.90;;;;;;5047987;28;20021;-78
2020/12/29 05:46:56;;;;;;;14.33;8.13;;;-2.20;99.90;;;;;;5048047;28;20676;-81
2020/12/29 05:49:23;;;;;;;14.07;8.17;;;-2.20;99.90;;;;;;5048602;28;20029;-77
2020/12/29 05:51:51;;;;;;;15.53;7.63;;;-2.20;99.90;;;;;;5048521;28;20475;-83
2020/12/29 05:54:23;;;;;;;10.90;7.37;;;-2.40;99.90;;;;;;5066074;28;20486;-78
2020/12/29 05:56:51;;;;;;;10.73;6.10;;;-2.40;99.90;;;;;;5066244;28;21251;-78
2020/12/29 05:59:17;;;;;;;13.70;7.10;;;-2.30;99.90;;;;;;5055729;28;20025;-78
2020/12/29 06:01:53;;;;;;;11.33;6.63;;;-2.20;99.90;;;;;;5067932;28;20042;-78
2020/12/29 06:04:20;;;;;;;13.07;7.73;;;-2.10;99.90;;;;;;5048368;28;20111;-81
2020/12/29 06:06:47;;;;;;;13.83;9.13;;;-2.30;99.90;;;;;;5067953;28;20028;-78
2020/12/29 06:09:15;;;;;;;16.77;7.80;;;-2.30;99.90;;;;;;5065563;28;20059;-77
2020/12/29 06:11:47;;;;;;;12.30;6.80;;;-2.40;99.90;;;;;;5067870;28;20427;-77
2020/12/29 06:14:14;;;;;;;13.07;7.20;;;-2.40;99.90;;;;;;5058206;28;20379;-78
2020/12/29 06:16:42;;;;;;;12.43;7.37;;;-2.30;99.90;;;;;;5047256;28;20044;-82
2020/12/29 06:19:28;;;;;;;11.13;7.63;;;-2.10;99.90;;;;;;5047527;28;20021;-79
2020/12/29 06:22:12;;;;;;;13.17;6.97;;;-2.20;99.90;;;;;;5048650;28;20077;-77
2020/12/29 06:24:45;;;;;;;14.35;6.68;;;-2.20;99.90;;;;;;5048392;28;20111;-78
2020/12/29 06:27:12;;;;;;;11.17;6.43;;;-2.30;99.90;;;;;;5048730;28;20168;-82
2020/12/29 06:29:45;;;;;;;10.10;5.70;;;-2.10;99.90;;;;;;5048007;28;20037;-78
2020/12/29 06:32:16;;;;;;;10.63;6.13;;;-1.90;99.90;;;;;;5047921;28;20090;-77
2020/12/29 06:34:43;;;;;;;11.43;6.50;;;-1.90;99.90;;;;;;5051623;28;20039;-77
2020/12/29 06:37:25;;;;;;;11.17;6.67;;;-2.00;99.90;;;;;;5047045;28;20029;-79
2020/12/29 06:40:01;;;;;;;11.77;6.50;;;-2.00;99.90;;;;;;5046318;28;20029;-78
2020/12/29 06:42:28;;;;;;;9.43;6.00;;;-2.00;99.90;;;;;;5056280;28;20032;-85
2020/12/29 06:44:55;;;;;;;10.87;6.33;;;-1.90;99.90;;;;;;5056296;28;20423;-79
2020/12/29 06:47:23;;;;;;;14.40;7.97;;;-1.90;99.90;;;;;;5046289;28;20105;-79
2020/12/29 06:49:50;;;;;;;16.80;8.40;;;-2.00;99.90;;;;;;5045787;28;20025;-78
2020/12/29 06:52:25;;;;;;;14.70;8.10;;;-1.80;99.90;;;;;;5046562;28;20037;-78
2020/12/29 06:54:58;;;;;;;15.00;8.43;;;-1.90;99.90;;;;;;5046673;28;20063;-78
2020/12/29 06:57:33;;;;;;;14.03;8.50;;;-2.00;99.90;;;;;;5047142;28;20029;-78
2020/12/29 07:00:01;;;;;;;13.40;7.70;;;-2.00;99.90;;;;;;5046167;28;20029;-78
2020/12/29 07:02:35;;;;;;;11.30;7.40;;;-2.00;99.90;;;;;;5048857;28;20036;-78
2020/12/29 07:05:20;;;;;;;10.50;6.40;;;-1.80;99.90;;;;;;5060335;28;20470;-78
2020/12/29 07:08:05;;;;;;;11.45;6.38;;;-1.90;99.90;;;;;;5063927;28;20025;-79
2020/12/29 07:10:42;;;;;;;12.70;6.68;;;-1.90;99.90;;;;;;5050106;28;20033;-79
2020/12/29 07:13:10;;;;;;;10.73;6.63;;;-1.70;99.90;;;;;;5046436;28;20033;-77
2020/12/29 07:15:50;;;;;;;10.60;6.87;;;-1.70;99.90;;;;;;5045695;28;20025;-77
2020/12/29 07:18:26;;;;;;;11.90;6.90;;;-1.70;99.90;;;;;;5046086;28;20155;-77
2020/12/29 07:20:57;;;;;;;12.13;7.07;;;-1.60;99.90;;;;;;5058273;28;20073;-76
2020/12/29 07:23:25;;;;;;;14.68;7.63;;;-1.60;99.90;;;;;;5056099;28;20168;-77
2020/12/29 07:25:53;;;;;;;15.20;8.73;;;-1.90;99.90;;;;;;5049225;28;20303;-77
2020/12/29 07:28:27;;;;;;;13.17;8.23;;;-2.10;99.90;;;;;;5045613;28;20025;-76
2020/12/29 07:30:53;;;;;;;14.18;8.13;;;-2.00;99.90;;;;;;5051281;28;20029;-76
2020/12/29 07:33:22;;;;;;;13.40;8.30;;;-1.80;99.90;;;;;;5050920;28;20024;-77
2020/12/29 07:35:48;;;;;;;14.70;8.37;;;-1.90;99.90;;;;;;5044785;28;20060;-76
2020/12/29 07:38:19;;;;;;;15.18;7.90;;;-1.80;99.90;;;;;;5044180;28;20082;-78
2020/12/29 07:40:56;;;;;;;11.07;6.95;;;-1.80;99.90;;;;;;5063457;28;20036;-77
2020/12/29 07:43:22;;;;;;;11.30;7.33;;;-1.70;99.90;;;;;;5042630;28;20033;-78
2020/12/29 07:45:47;;;;;;;11.32;7.18;;;-1.60;99.90;;;;;;5042685;28;20185;-77
2020/12/29 07:48:13;;;;;;;13.02;7.40;;;-1.50;99.90;;;;;;5044762;28;20044;-77
2020/12/29 07:50:40;;;;;;;12.23;6.78;;;-1.50;99.90;;;;;;5046752;28;20021;-78
2020/12/29 07:53:11;;;;;;;15.07;7.68;;;-1.40;99.90;;;;;;5055238;28;20607;-77
2020/12/29 07:55:41;;;;;;;19.52;10.10;;;-1.30;99.90;;;;;;5048701;28;20033;-78
2020/12/29 07:58:08;;;;;;;16.43;10.33;;;-1.50;99.90;;;;;;5053909;28;20033;-78
2020/12/29 08:00:38;;;;;;;14.40;8.45;;;-1.70;99.90;;;;;;5052760;28;20025;-78
2020/12/29 08:03:04;;;;;;;17.67;9.63;;;-1.60;99.90;;;;;;5056681;28;20044;-78
2020/12/29 08:05:32;;;;;;;14.82;10.00;;;-1.70;99.90;;;;;;5050713;28;20031;-78
2020/12/29 08:08:11;;;;;;;18.13;9.83;;;-2.00;99.90;;;;;;5059463;28;20028;-78
2020/12/29 08:10:39;;;;;;;18.45;9.60;;;-1.70;99.90;;;;;;5045329;28;20435;-77
2020/12/29 08:13:10;;;;;;;15.07;8.30;;;-1.40;99.90;;;;;;5059455;28;20070;-78
2020/12/29 08:15:41;;;;;;;13.30;7.70;;;-1.20;99.90;;;;;;5049208;28;20576;-78
2020/12/29 08:18:08;;;;;;;14.80;8.17;;;-1.10;99.90;;;;;;5058898;28;20036;-78
2020/12/29 08:20:46;;;;;;;13.45;7.72;;;-1.20;99.90;;;;;;5060619;28;20032;-77
2020/12/29 08:23:13;;;;;;;21.83;11.25;;;-1.30;99.90;;;;;;5048393;28;20252;-78
2020/12/29 08:25:40;;;;;;;89.15;39.10;;;-1.00;99.90;;;;;;5057445;28;20124;-78
2020/12/29 08:28:07;;;;;;;27.60;14.90;;;-1.00;99.90;;;;;;5060564;28;20037;-78
2020/12/29 08:30:34;;;;;;;16.25;9.88;;;-1.00;99.90;;;;;;5049649;28;20082;-77
2020/12/29 08:33:03;;;;;;;17.45;10.57;;;-1.00;99.90;;;;;;5057959;28;20051;-78
2020/12/29 08:35:32;;;;;;;21.25;13.25;;;-1.00;99.90;;;;;;5062156;28;20078;-77
2020/12/29 08:38:32;;;;;;;18.42;10.05;;;-1.00;99.90;;;;;;5048518;28;20037;-78
2020/12/29 08:41:10;;;;;;;12.93;8.65;;;-1.20;99.90;;;;;;5047462;28;20017;-78
2020/12/29 08:43:45;;;;;;;17.05;9.35;;;-1.20;99.90;;;;;;5062145;28;20025;-77
2020/12/29 08:46:12;;;;;;;15.15;8.65;;;-1.10;99.90;;;;;;5052240;28;20028;-78
2020/12/29 08:48:41;;;;;;;13.50;8.82;;;-1.00;99.90;;;;;;5058218;28;20024;-77
2020/12/29 08:51:27;;;;;;;23.57;13.43;;;-1.00;99.90;;;;;;5062441;28;20025;-78
2020/12/29 08:54:13;;;;;;;17.90;9.95;;;-1.10;99.90;;;;;;5043354;28;20036;-78
2020/12/29 08:56:40;;;;;;;22.77;12.93;;;-1.00;99.90;;;;;;5055420;28;20048;-78
2020/12/29 08:59:20;;;;;;;25.02;13.50;;;-0.90;99.90;;;;;;5057860;28;20059;-78
2020/12/29 09:01:56;;;;;;;18.00;9.87;;;-0.90;99.90;;;;;;5043727;28;20067;-78
2020/12/29 09:04:33;;;;;;;15.97;10.23;;;-0.90;99.90;;;;;;5043456;28;20494;-77
2020/12/29 09:07:06;;;;;;;27.65;18.92;;;-0.80;99.90;;;;;;5063912;28;20031;-78
2020/12/29 09:09:34;;;;;;;25.83;15.03;;;-0.70;99.90;;;;;;5061300;28;20028;-78
2020/12/29 09:12:13;;;;;;;40.42;26.73;;;-0.60;99.90;;;;;;5055374;28;20033;-78
2020/12/29 09:14:51;;;;;;;20.52;13.48;;;-0.60;99.90;;;;;;5053590;28;20068;-77
2020/12/29 09:17:17;;;;;;;18.23;11.57;;;-0.40;99.90;;;;;;5063278;28;20038;-78
2020/12/29 09:20:03;;;;;;;21.30;13.02;;;-0.40;99.90;;;;;;5058011;28;20067;-78
2020/12/29 09:22:28;;;;;;;20.95;13.18;;;-0.40;99.90;;;;;;5045991;28;20053;-77
2020/12/29 09:24:54;;;;;;;36.28;21.63;;;-0.40;99.90;;;;;;5046546;28;20101;-78
2020/12/29 09:27:31;;;;;;;24.52;15.40;;;-0.60;99.90;;;;;;5047319;28;20028;-78
2020/12/29 09:30:10;;;;;;;21.98;14.05;;;-0.70;99.90;;;;;;5053151;28;20056;-77
2020/12/29 09:32:36;;;;;;;19.52;11.82;;;-0.70;99.90;;;;;;5047970;28;20033;-77
2020/12/29 09:35:24;;;;;;;17.92;10.63;;;-0.70;99.90;;;;;;5055290;28;20480;-76
2020/12/29 09:37:47;;;;;;;13.70;8.75;;;-0.70;99.90;;;;;;5052396;28;20075;-79
2020/12/29 09:40:13;;;;;;;20.65;10.32;;;-0.60;99.90;;;;;;5045515;28;20047;-78
2020/12/29 09:42:38;;;;;;;72.38;35.85;;;-0.60;99.90;;;;;;5056003;28;20062;-78
2020/12/29 09:45:04;;;;;;;27.27;15.73;;;-0.40;99.90;;;;;;5047355;28;20036;-78
2020/12/29 09:47:30;;;;;;;16.58;9.88;;;-0.20;99.90;;;;;;5050932;28;20031;-78
2020/12/29 09:49:55;;;;;;;21.50;11.65;;;-0.20;99.90;;;;;;5046202;28;20360;-78
2020/12/29 09:52:21;;;;;;;14.20;8.82;;;-0.20;99.90;;;;;;5059100;28;20088;-78
2020/12/29 09:54:47;;;;;;;15.05;9.10;;;-0.30;99.90;;;;;;5050880;28;20059;-78
2020/12/29 09:57:12;;;;;;;14.03;8.83;;;-0.30;99.90;;;;;;5043707;28;20025;-78
2020/12/29 09:59:38;;;;;;;23.33;14.68;;;-0.40;99.90;;;;;;5051806;28;20024;-78
2020/12/29 10:02:04;;;;;;;23.33;13.27;;;-0.50;99.90;;;;;;5045738;28;20939;-77
2020/12/29 10:04:29;;;;;;;19.15;12.25;;;-0.60;99.90;;;;;;5053779;28;20025;-78
2020/12/29 10:06:55;;;;;;;17.20;11.38;;;-0.60;99.90;;;;;;5054732;28;20038;-78
2020/12/29 10:09:21;;;;;;;15.30;9.95;;;-0.50;99.90;;;;;;5045750;28;20032;-78
2020/12/29 10:11:46;;;;;;;15.77;10.00;;;-0.40;99.90;;;;;;5031278;28;20036;-79
2020/12/29 10:14:12;;;;;;;13.30;9.38;;;-0.30;99.90;;;;;;5044838;28;20035;-78
2020/12/29 10:16:38;;;;;;;17.08;9.20;;;-0.30;99.90;;;;;;5054403;28;20070;-79
2020/12/29 10:19:04;;;;;;;15.27;8.43;;;-0.30;99.90;;;;;;5048286;28;20128;-80
2020/12/29 10:21:29;;;;;;;15.30;9.20;;;-0.40;99.90;;;;;;5049755;28;20044;-78
2020/12/29 10:23:55;;;;;;;11.80;7.15;;;-0.30;99.90;;;;;;5048516;28;20040;-79
2020/12/29 10:26:21;;;;;;;13.18;7.80;;;-0.20;99.90;;;;;;5056852;28;20017;-79
2020/12/29 10:28:46;;;;;;;17.55;9.75;;;-0.20;99.90;;;;;;5053174;28;20029;-78
2020/12/29 10:31:12;;;;;;;15.90;11.18;;;-0.20;99.90;;;;;;5046323;28;20116;-78
2020/12/29 10:33:37;;;;;;;17.85;10.23;;;-0.20;99.90;;;;;;5053603;28;20033;-78
2020/12/29 10:36:03;;;;;;;15.82;9.82;;;-0.20;99.90;;;;;;5051760;28;20033;-78
2020/12/29 10:38:29;;;;;;;16.05;9.52;;;-0.10;99.90;;;;;;5044677;28;20051;-78
2020/12/29 10:40:54;;;;;;;13.65;8.38;;;0.00;99.90;;;;;;5054663;28;20059;-79
2020/12/29 10:43:20;;;;;;;15.02;9.48;;;0.10;99.90;;;;;;5044324;28;20101;-79
2020/12/29 10:45:46;;;;;;;13.13;8.52;;;0.20;99.90;;;;;;5049366;28;20083;-78
2020/12/29 10:48:11;;;;;;;14.13;7.82;;;0.30;99.90;;;;;;5051367;28;20111;-79
2020/12/29 10:50:38;;;;;;;14.85;9.85;;;0.30;99.90;;;;;;5046588;28;20036;-79
2020/12/29 10:53:03;;;;;;;16.15;9.55;;;0.20;99.90;;;;;;5044196;28;20041;-78
2020/12/29 10:55:29;;;;;;;16.42;10.18;;;0.40;99.90;;;;;;5045173;28;20572;-78
2020/12/29 10:57:55;;;;;;;18.98;11.73;;;0.50;99.90;;;;;;5059187;28;20029;-78
2020/12/29 11:00:20;;;;;;;19.98;10.93;;;0.70;99.90;;;;;;5062257;28;20017;-78
2020/12/29 11:02:46;;;;;;;20.55;11.80;;;0.60;99.90;;;;;;5052056;28;20610;-78
2020/12/29 11:05:12;;;;;;;17.75;10.30;;;0.60;99.90;;;;;;5048810;28;20032;-78
2020/12/29 11:07:38;;;;;;;14.93;10.65;;;0.60;99.90;;;;;;5044981;28;20025;-78
2020/12/29 11:10:04;;;;;;;17.85;10.73;;;0.60;99.90;;;;;;5044850;28;20041;-78
2020/12/29 11:12:29;;;;;;;18.75;9.32;;;0.70;99.90;;;;;;5062897;28;20402;-78
2020/12/29 11:14:55;;;;;;;17.67;9.68;;;0.80;99.90;;;;;;5047211;28;20052;-78
2020/12/29 11:17:23;;;;;;;19.70;11.45;;;0.70;99.90;;;;;;5046950;28;20028;-77
2020/12/29 11:19:49;;;;;;;17.58;12.68;;;0.80;99.90;;;;;;5051438;28;20033;-77
2020/12/29 11:22:15;;;;;;;18.85;12.30;;;0.90;99.90;;;;;;5044241;28;20036;-78
2020/12/29 11:24:40;;;;;;;23.10;13.45;;;0.80;99.90;;;;;;5045406;28;20032;-78
2020/12/29 11:27:06;;;;;;;21.58;12.38;;;0.50;99.90;;;;;;5044834;28;20048;-77
2020/12/29 11:29:32;;;;;;;18.65;12.50;;;0.40;99.90;;;;;;5049006;28;20115;-78
2020/12/29 11:31:57;;;;;;;19.35;13.48;;;0.40;99.90;;;;;;5056794;28;20430;-78
2020/12/29 11:34:24;;;;;;;20.30;12.15;;;0.50;99.90;;;;;;5060593;28;20031;-78
2020/12/29 11:36:50;;;;;;;17.52;11.13;;;0.60;99.90;;;;;;5049739;28;20375;-75
2020/12/29 11:39:15;;;;;;;17.25;11.32;;;0.50;99.90;;;;;;5058944;28;20040;-75
2020/12/29 11:41:41;;;;;;;16.65;11.00;;;0.60;99.90;;;;;;5051614;28;20182;-76
2020/12/29 11:44:07;;;;;;;18.23;10.55;;;0.60;99.90;;;;;;5044672;28;20136;-78
2020/12/29 11:46:32;;;;;;;14.70;10.65;;;0.50;99.90;;;;;;5062479;28;20043;-77
2020/12/29 11:48:58;;;;;;;17.85;10.43;;;0.70;99.90;;;;;;5044899;28;20107;-77
2020/12/29 11:51:24;;;;;;;14.82;10.45;;;0.80;99.90;;;;;;5045028;28;20033;-77
2020/12/29 11:53:50;;;;;;;19.45;12.10;;;0.70;99.90;;;;;;5057151;28;20475;-79
2020/12/29 11:56:16;;;;;;;17.25;10.32;;;0.80;99.90;;;;;;5062785;28;20029;-79
2020/12/29 11:58:41;;;;;;;14.95;10.80;;;0.90;99.90;;;;;;5065778;28;20032;-79
2020/12/29 12:01:07;;;;;;;19.05;12.00;;;0.80;99.90;;;;;;5051754;28;20604;-79
2020/12/29 12:03:33;;;;;;;20.02;13.07;;;0.50;99.90;;;;;;5060178;28;20034;-75
2020/12/29 12:05:58;;;;;;;24.05;12.75;;;0.60;99.90;;;;;;5063350;28;20040;-77
2020/12/29 12:08:24;;;;;;;17.52;11.10;;;0.60;99.90;;;;;;5053623;28;20027;-77
2020/12/29 12:10:50;;;;;;;14.57;9.70;;;0.70;99.90;;;;;;5045031;28;20487;-77
2020/12/29 12:13:16;;;;;;;19.02;11.63;;;0.70;99.90;;;;;;5050626;28;20104;-78
2020/12/29 12:15:41;;;;;;;23.45;13.57;;;0.80;99.90;;;;;;5039550;28;20624;-78
2020/12/29 12:18:07;;;;;;;19.05;11.95;;;0.80;99.90;;;;;;5044496;28;20021;-76
2020/12/29 12:20:33;;;;;;;23.60;13.25;;;0.70;99.90;;;;;;5057824;28;20468;-77
2020/12/29 12:22:59;;;;;;;20.25;12.15;;;0.70;99.90;;;;;;5064327;28;20194;-78
2020/12/29 12:25:24;;;;;;;20.95;12.43;;;0.70;99.90;;;;;;5050718;28;20029;-79
2020/12/29 12:27:50;;;;;;;17.83;12.30;;;0.70;99.90;;;;;;5044922;28;20143;-76
2020/12/29 12:30:16;;;;;;;21.58;12.85;;;0.70;99.90;;;;;;5045015;28;20083;-76
2020/12/29 12:32:42;;;;;;;20.38;12.77;;;0.60;99.90;;;;;;5059436;28;20604;-76
2020/12/29 12:35:07;;;;;;;19.40;14.05;;;0.70;99.90;;;;;;5043834;28;20024;-78
2020/12/29 12:37:33;;;;;;;21.75;14.35;;;0.70;99.90;;;;;;5050163;28;20082;-76
2020/12/29 12:39:59;;;;;;;19.52;13.05;;;0.80;99.90;;;;;;5045917;28;20459;-77
2020/12/29 12:42:24;;;;;;;21.65;13.23;;;0.70;99.90;;;;;;5062727;28;20051;-78